Time;durP1;ratioP1;P1;durP2;ratioP2;P2;SDS_P1;SDS_P2;PMS_P1;PMS_P2;Temp;Humidity;BMP_temperature;BMP_pressure;BME280_temperature;BME280_humidity;BME280_pressure;Samples;Min_cycle;Max_cycle;Signal;HPM_P1;HPM_P2
2021/05/26 00:01:55;;;;;;;;;;;;;;;19.43;65.94;99179.08;1661654;86;20608;-86
2021/05/26 00:04:21;;;;;;;;;;;;;;;19.37;65.85;99192.15;1661422;86;20191;-85
2021/05/26 00:06:47;;;;;;;;;;;;;;;19.29;65.59;99197.03;1659974;85;20159;-86
2021/05/26 00:09:14;;;;;;;;;;;;;;;19.27;65.71;99195.80;1659418;85;20553;-84
2021/05/26 00:11:40;;;;;;;;;;;;;;;19.12;66.59;99209.91;1660186;85;20203;-85
2021/05/26 00:14:06;;;;;;;;;;;;;;;19.08;66.46;99212.34;1659489;86;20167;-85
2021/05/26 00:16:33;;;;;;;;;;;;;;;18.99;66.34;99215.02;1669819;84;20209;-86
2021/05/26 00:18:59;;;;;;;;;;;;;;;18.83;67.26;99215.53;1699640;83;20174;-84
2021/05/26 00:21:26;;;;;;;;;;;;;;;18.82;67.47;99227.86;1714631;83;20273;-85
2021/05/26 00:23:52;;;;;;;;;;;;;;;18.72;67.13;99223.15;1700296;83;20188;-85
2021/05/26 00:26:18;;;;;;;;;;;;;;;18.58;68.35;99230.51;1711736;83;20204;-84
2021/05/26 00:28:46;;;;;;;;;;;;;;;18.51;69.02;99230.48;1708418;83;20197;-85
2021/05/26 00:31:13;;;;;;;;;;;;;;;18.37;69.28;99237.35;1698894;84;20191;-85
2021/05/26 00:33:39;;;;;;;;;;;;;;;18.21;70.49;99238.66;1700185;84;20178;-84
2021/05/26 00:36:06;;;;;;;;;;;;;;;18.03;72.02;99241.81;1702275;84;20188;-84
2021/05/26 00:38:32;;;;;;;;;;;;;;;17.88;73.61;99251.82;1688004;85;20182;-85
2021/05/26 00:40:58;;;;;;;;;;;;;;;17.78;75.52;99255.83;1697896;84;20813;-85
2021/05/26 00:43:25;;;;;;;;;;;;;;;17.65;74.03;99259.58;1711506;84;20245;-84
2021/05/26 00:45:51;;;;;;;;;;;;;;;17.36;78.00;99251.38;1705565;83;20185;-82
2021/05/26 00:48:17;;;;;;;;;;;;;;;17.24;77.12;99258.09;1699803;83;20200;-82
2021/05/26 00:50:43;;;;;;;;;;;;;;;16.99;79.85;99257.61;1721972;83;20185;-81
2021/05/26 00:53:12;;;;;;;;;;;;;;;16.92;79.23;99277.23;1703371;84;20194;-81
2021/05/26 00:55:38;;;;;;;;;;;;;;;16.87;79.53;99282.24;1724973;83;20173;-82
2021/05/26 00:58:06;;;;;;;;;;;;;;;16.71;80.74;99302.22;1698343;83;20172;-83
2021/05/26 01:00:35;;;;;;;;;;;;;;;16.62;80.12;99322.36;1701386;83;20313;-83
2021/05/26 01:03:03;;;;;;;;;;;;;;;16.45;81.74;99318.73;1700830;84;20188;-83
2021/05/26 01:05:30;;;;;;;;;;;;;;;16.26;83.26;99338.37;1710428;84;20164;-83
2021/05/26 01:07:57;;;;;;;;;;;;;;;16.06;83.72;99335.80;1710191;84;20535;-82
2021/05/26 01:10:26;;;;;;;;;;;;;;;16.07;81.34;99331.77;1696079;83;20213;-82
2021/05/26 01:12:55;;;;;;;;;;;;;;;15.89;84.89;99349.62;1716488;83;20193;-83
2021/05/26 01:15:22;;;;;;;;;;;;;;;15.86;84.24;99351.92;1715112;83;20269;-83
2021/05/26 01:17:50;;;;;;;;;;;;;;;15.78;84.04;99351.87;1720897;83;20183;-84
2021/05/26 01:20:28;;;;;;;;;;;;;;;15.76;83.68;99351.92;1710534;83;20235;-84
2021/05/26 01:23:00;;;;;;;;;;;;;;;15.73;83.00;99348.58;1710924;83;20232;-84
2021/05/26 01:25:28;;;;;;;;;;;;;;;15.66;84.90;99350.11;1711227;84;20226;-85
2021/05/26 01:27:58;;;;;;;;;;;;;;;15.66;83.11;99348.80;1711200;83;20247;-85
2021/05/26 01:30:25;;;;;;;;;;;;;;;15.64;83.17;99354.56;1711016;84;20276;-85
2021/05/26 01:32:53;;;;;;;;;;;;;;;15.67;82.46;99349.65;1694854;84;20177;-85
2021/05/26 01:35:21;;;;;;;;;;;;;;;15.69;82.74;99358.30;1710484;84;20240;-85
2021/05/26 01:37:48;;;;;;;;;;;;;;;15.65;82.75;99353.63;1718773;83;20169;-85
2021/05/26 01:40:18;;;;;;;;;;;;;;;15.66;81.76;99359.28;1730927;83;20185;-84
2021/05/26 01:42:45;;;;;;;;;;;;;;;15.66;81.20;99350.11;1670664;86;20158;-84
2021/05/26 01:45:16;;;;;;;;;;;;;;;15.61;81.53;99361.70;1696347;84;20121;-85
2021/05/26 01:47:44;;;;;;;;;;;;;;;15.62;81.17;99360.80;1703367;84;20172;-85
2021/05/26 01:50:22;;;;;;;;;;;;;;;15.55;81.29;99360.18;1695574;85;20223;-83
2021/05/26 01:53:02;;;;;;;;;;;;;;;15.49;81.20;99361.74;1729525;82;20453;-85
2021/05/26 01:55:28;;;;;;;;;;;;;;;15.45;80.92;99363.63;1746077;82;20186;-84
2021/05/26 01:57:56;;;;;;;;;;;;;;;15.47;80.94;99365.73;1729482;82;20230;-84
2021/05/26 02:00:25;;;;;;;;;;;;;;;15.43;80.37;99365.92;1766383;81;20143;-84
2021/05/26 02:02:52;;;;;;;;;;;;;;;15.43;80.46;99369.86;1763611;81;20147;-85
2021/05/26 02:05:19;;;;;;;;;;;;;;;15.47;79.46;99374.91;1773548;80;20171;-84
2021/05/26 02:07:47;;;;;;;;;;;;;;;15.47;79.86;99372.75;1761760;81;20186;-84
2021/05/26 02:10:16;;;;;;;;;;;;;;;15.48;79.81;99378.40;1772629;80;20190;-83
2021/05/26 02:12:45;;;;;;;;;;;;;;;15.47;79.80;99380.14;1765978;80;20524;-80
2021/05/26 02:15:14;;;;;;;;;;;;;;;15.51;79.50;99383.49;1757870;81;20264;-85
2021/05/26 02:17:42;;;;;;;;;;;;;;;15.53;80.21;99389.99;1755197;82;20216;-85
2021/05/26 02:20:10;;;;;;;;;;;;;;;15.53;80.14;99397.39;1763764;81;20132;-85
2021/05/26 02:22:38;;;;;;;;;;;;;;;15.54;79.92;99398.23;1725805;82;20192;-84
2021/05/26 02:25:06;;;;;;;;;;;;;;;15.58;79.21;99408.98;1739298;82;20198;-84
2021/05/26 02:27:33;;;;;;;;;;;;;;;15.59;79.46;99409.39;1760759;80;20182;-85
2021/05/26 02:29:59;;;;;;;;;;;;;;;15.58;79.05;99413.79;1773542;81;20148;-85
2021/05/26 02:32:26;;;;;;;;;;;;;;;15.65;78.39;99423.09;1768707;80;20162;-85
2021/05/26 02:34:52;;;;;;;;;;;;;;;15.70;77.43;99426.39;1759647;81;20177;-84
2021/05/26 02:37:19;;;;;;;;;;;;;;;15.69;77.30;99432.53;1763777;81;20131;-84
2021/05/26 02:39:47;;;;;;;;;;;;;;;15.75;76.41;99432.77;1764830;80;20104;-83
2021/05/26 02:42:13;;;;;;;;;;;;;;;15.77;76.18;99441.42;1764023;81;20219;-84
2021/05/26 02:44:40;;;;;;;;;;;;;;;15.80;76.12;99443.09;1759697;81;20190;-84
2021/05/26 02:47:06;;;;;;;;;;;;;;;15.84;75.44;99445.98;1782764;80;20201;-85
2021/05/26 02:49:33;;;;;;;;;;;;;;;15.83;74.85;99439.86;1762247;80;20206;-83
2021/05/26 02:52:00;;;;;;;;;;;;;;;15.84;73.67;99444.67;1774387;80;20166;-84
2021/05/26 02:54:28;;;;;;;;;;;;;;;15.92;74.00;99447.83;1756789;81;20161;-84
2021/05/26 02:56:55;;;;;;;;;;;;;;;15.93;73.83;99443.42;1764162;80;20175;-85
2021/05/26 02:59:39;;;;;;;;;;;;;;;15.93;73.37;99449.52;1717552;84;20156;-84
2021/05/26 03:02:13;;;;;;;;;;;;;;;15.95;73.11;99454.70;1706556;81;20179;-84
2021/05/26 03:04:42;;;;;;;;;;;;;;;15.95;73.27;99455.55;1758002;81;20192;-84
2021/05/26 03:07:09;;;;;;;;;;;;;;;15.99;72.70;99466.30;1762491;81;20239;-84
2021/05/26 03:09:36;;;;;;;;;;;;;;;15.94;72.77;99466.13;1772286;81;20206;-84
2021/05/26 03:12:03;;;;;;;;;;;;;;;16.02;72.67;99470.13;1770524;80;20263;-85
2021/05/26 03:14:31;;;;;;;;;;;;;;;15.97;72.84;99474.69;1756314;80;20148;-83
2021/05/26 03:16:59;;;;;;;;;;;;;;;15.96;72.65;99469.07;1755259;82;20139;-84
2021/05/26 03:19:25;;;;;;;;;;;;;;;16.03;72.38;99479.68;1756283;82;20566;-83
2021/05/26 03:21:53;;;;;;;;;;;;;;;16.03;72.50;99478.37;1754486;81;20184;-83
2021/05/26 03:24:24;;;;;;;;;;;;;;;16.02;72.08;99475.84;1719424;82;20213;-83
2021/05/26 03:26:51;;;;;;;;;;;;;;;15.99;72.69;99477.26;1753750;82;20175;-85
2021/05/26 03:29:17;;;;;;;;;;;;;;;15.97;72.29;99478.62;1766312;80;20194;-84
2021/05/26 03:31:43;;;;;;;;;;;;;;;15.94;71.97;99476.61;1764945;81;20109;-84
2021/05/26 03:34:10;;;;;;;;;;;;;;;15.90;72.40;99482.44;1751198;81;20297;-84
2021/05/26 03:36:40;;;;;;;;;;;;;;;15.89;72.01;99481.55;1756262;82;20163;-85
2021/05/26 03:39:08;;;;;;;;;;;;;;;15.88;72.13;99483.80;1782495;81;20218;-84
2021/05/26 03:41:34;;;;;;;;;;;;;;;15.88;71.67;99480.33;1767494;80;20192;-85
2021/05/26 03:44:00;;;;;;;;;;;;;;;15.88;71.79;99478.56;1753550;82;20148;-82
2021/05/26 03:46:27;;;;;;;;;;;;;;;15.91;71.52;99482.34;1756736;80;20170;-85
2021/05/26 03:48:54;;;;;;;;;;;;;;;15.91;71.46;99480.19;1756652;82;20156;-85
2021/05/26 03:51:21;;;;;;;;;;;;;;;15.89;71.73;99486.80;1771398;81;20179;-84
2021/05/26 03:53:48;;;;;;;;;;;;;;;15.91;71.58;99482.81;1754506;82;20247;-85
2021/05/26 03:56:16;;;;;;;;;;;;;;;15.84;72.52;99483.53;1754544;81;20234;-86
2021/05/26 03:58:53;;;;;;;;;;;;;;;15.80;72.55;99480.64;1756528;81;20168;-85
2021/05/26 04:01:21;;;;;;;;;;;;;;;15.74;72.97;99480.02;1755047;81;20203;-82
2021/05/26 04:03:47;;;;;;;;;;;;;;;15.71;73.70;99484.43;1735125;82;20238;-83
2021/05/26 04:06:15;;;;;;;;;;;;;;;15.72;73.49;99487.93;1757811;81;20190;-82
2021/05/26 04:08:41;;;;;;;;;;;;;;;15.75;72.95;99488.28;1740189;81;20209;-81
2021/05/26 04:11:08;;;;;;;;;;;;;;;15.78;73.04;99489.49;1745981;81;20181;-81
2021/05/26 04:13:42;;;;;;;;;;;;;;;15.79;72.92;99488.09;1722477;81;20195;-82
2021/05/26 04:16:10;;;;;;;;;;;;;;;15.80;72.90;99496.83;1746089;82;20510;-83
2021/05/26 04:18:38;;;;;;;;;;;;;;;15.80;72.77;99504.70;1757345;81;20211;-83
2021/05/26 04:21:05;;;;;;;;;;;;;;;15.81;73.25;99499.84;1750984;82;20606;-83
2021/05/26 04:23:31;;;;;;;;;;;;;;;15.81;73.46;99506.39;1761022;80;20517;-84
2021/05/26 04:25:59;;;;;;;;;;;;;;;15.66;73.95;99477.69;1775547;80;20159;-84
2021/05/26 04:28:26;;;;;;;;;;;;;;;15.87;73.44;99508.30;1734173;81;20561;-84
2021/05/26 04:30:52;;;;;;;;;;;;;;;15.91;72.98;99511.19;1755407;81;20195;-84
2021/05/26 04:33:20;;;;;;;;;;;;;;;15.78;73.37;99490.33;1761940;80;20254;-82
2021/05/26 04:35:47;;;;;;;;;;;;;;;16.00;73.02;99509.14;1758482;81;20163;-83
2021/05/26 04:38:13;;;;;;;;;;;;;;;16.07;72.09;99508.80;1758477;81;20209;-83
2021/05/26 04:40:40;;;;;;;;;;;;;;;16.12;72.30;99519.59;1754952;80;20185;-87
2021/05/26 04:43:06;;;;;;;;;;;;;;;16.20;72.35;99517.50;1753827;81;20143;-85
2021/05/26 04:45:33;;;;;;;;;;;;;;;16.28;71.08;99514.09;1752623;82;20494;-85
2021/05/26 04:47:59;;;;;;;;;;;;;;;16.30;71.61;99508.32;1760129;81;20577;-83
2021/05/26 04:50:26;;;;;;;;;;;;;;;16.37;71.94;99517.62;1752906;81;20187;-83
2021/05/26 04:52:52;;;;;;;;;;;;;;;16.45;71.85;99521.23;1755304;81;20198;-82
2021/05/26 04:55:18;;;;;;;;;;;;;;;16.49;71.99;99511.88;1766024;81;20561;-81
2021/05/26 04:57:46;;;;;;;;;;;;;;;16.63;71.36;99507.78;1756690;80;20227;-82
2021/05/26 05:00:13;;;;;;;;;;;;;;;16.68;71.54;99513.70;1757153;81;20227;-80
2021/05/26 05:02:39;;;;;;;;;;;;;;;16.66;71.80;99503.73;1758814;81;20549;-82
2021/05/26 05:05:06;;;;;;;;;;;;;;;16.58;71.87;99510.62;1750722;82;20201;-80
2021/05/26 05:07:33;;;;;;;;;;;;;;;16.53;72.00;99513.89;1758102;80;20178;-84
2021/05/26 05:10:02;;;;;;;;;;;;;;;16.43;72.87;99517.39;1758746;81;20235;-84
2021/05/26 05:12:30;;;;;;;;;;;;;;;16.43;72.23;99508.64;1722691;81;20262;-86
2021/05/26 05:14:56;;;;;;;;;;;;;;;16.42;72.26;99515.67;1762775;80;20097;-83
2021/05/26 05:17:23;;;;;;;;;;;;;;;16.41;72.93;99516.60;1757873;80;20261;-84
2021/05/26 05:19:49;;;;;;;;;;;;;;;16.34;73.80;99519.55;1739507;82;20188;-82
2021/05/26 05:22:16;;;;;;;;;;;;;;;16.37;74.01;99517.62;1751547;82;20190;-84
2021/05/26 05:24:42;;;;;;;;;;;;;;;16.44;73.80;99511.20;1748264;81;20168;-87
2021/05/26 05:27:09;;;;;;;;;;;;;;;16.51;73.44;99513.09;1748507;81;20177;-86
2021/05/26 05:29:35;;;;;;;;;;;;;;;16.57;72.37;99519.39;1744932;81;20195;-85
2021/05/26 05:32:01;;;;;;;;;;;;;;;16.63;72.29;99509.09;1764704;81;20167;-86
2021/05/26 05:34:28;;;;;;;;;;;;;;;16.80;71.38;99512.31;1748561;81;20190;-83
2021/05/26 05:36:54;;;;;;;;;;;;;;;16.79;71.74;99511.91;1744265;81;20187;-83
2021/05/26 05:39:20;;;;;;;;;;;;;;;16.95;71.66;99509.48;1747996;81;20265;-83
2021/05/26 05:41:46;;;;;;;;;;;;;;;17.06;70.21;99519.06;1748497;81;20167;-83
2021/05/26 05:44:13;;;;;;;;;;;;;;;17.04;69.87;99515.66;1746526;81;20213;-91
2021/05/26 05:46:39;;;;;;;;;;;;;;;17.06;69.66;99520.37;1750884;81;20156;-87
2021/05/26 05:49:05;;;;;;;;;;;;;;;17.13;69.25;99516.56;1751697;81;20586;-85
2021/05/26 05:51:32;;;;;;;;;;;;;;;17.16;69.57;99522.13;1767396;80;20207;-87
2021/05/26 05:53:59;;;;;;;;;;;;;;;17.26;69.52;99517.69;1755339;80;20170;-89
2021/05/26 05:56:26;;;;;;;;;;;;;;;17.28;68.58;99513.20;1754873;82;20192;-85
2021/05/26 05:58:52;;;;;;;;;;;;;;;17.29;68.05;99522.81;1744482;82;20182;-86
2021/05/26 06:01:18;;;;;;;;;;;;;;;17.35;68.22;99526.94;1751097;82;20112;-85
2021/05/26 06:03:44;;;;;;;;;;;;;;;17.34;68.65;99516.02;1756944;82;20206;-87
2021/05/26 06:08:46;;;;;;;;;;;;;;;17.39;68.73;99521.05;1689051;83;20189;-86
2021/05/26 06:11:15;;;;;;;;;;;;;;;17.50;68.54;99520.10;1693440;84;20220;-87
2021/05/26 06:13:48;;;;;;;;;;;;;;;17.56;68.42;99522.91;1690452;84;20174;-85
2021/05/26 06:19:13;;;;;;;;;;;;;;;17.69;67.39;99517.00;1678756;80;20150;-84
2021/05/26 06:21:39;;;;;;;;;;;;;;;17.73;67.17;99516.41;1653746;86;20165;-82
2021/05/26 06:24:08;;;;;;;;;;;;;;;17.76;66.72;99517.55;1671542;82;20202;-84
2021/05/26 06:26:34;;;;;;;;;;;;;;;17.69;66.45;99514.38;1675303;85;20199;-85
2021/05/26 06:29:02;;;;;;;;;;;;;;;17.73;66.66;99516.41;1710908;83;20121;-87
2021/05/26 06:37:29;;;;;;;;;;;;;;;17.77;64.92;99512.70;1726453;80;20113;-87
2021/05/26 06:39:55;;;;;;;;;;;;;;;17.85;65.34;99511.05;1736751;82;20749;-88
2021/05/26 06:42:22;;;;;;;;;;;;;;;17.92;64.30;99512.44;1728595;79;20122;-87
2021/05/26 06:44:52;;;;;;;;;;;;;;;17.95;64.62;99512.30;1738764;81;20183;-88
2021/05/26 06:47:21;;;;;;;;;;;;;;;18.01;63.22;99506.73;1745389;82;20144;-87
2021/05/26 06:49:48;;;;;;;;;;;;;;;18.07;60.69;99505.11;1738956;82;20591;-85
2021/05/26 06:52:17;;;;;;;;;;;;;;;18.18;61.93;99502.41;1742316;81;20196;-88
2021/05/26 06:54:44;;;;;;;;;;;;;;;18.23;58.72;99504.36;1722460;83;20200;-87
2021/05/26 06:57:11;;;;;;;;;;;;;;;18.25;58.63;99506.45;1749681;82;20226;-87
2021/05/26 06:59:41;;;;;;;;;;;;;;;18.40;60.07;99509.63;1766458;80;20163;-87
2021/05/26 07:02:08;;;;;;;;;;;;;;;18.45;58.64;99505.44;1776237;80;20199;-85
2021/05/26 07:04:34;;;;;;;;;;;;;;;18.51;58.40;99499.02;1741770;82;20316;-85
2021/05/26 07:07:03;;;;;;;;;;;;;;;18.58;58.97;99494.67;1742915;82;20176;-84
2021/05/26 07:09:30;;;;;;;;;;;;;;;18.63;58.82;99495.27;1747314;81;20169;-86
2021/05/26 07:11:56;;;;;;;;;;;;;;;18.60;58.98;99495.45;1749086;82;20221;-87
2021/05/26 07:14:23;;;;;;;;;;;;;;;18.59;59.05;99483.20;1743656;80;20140;-85
2021/05/26 07:16:49;;;;;;;;;;;;;;;18.62;59.20;99487.44;1753969;80;20206;-84
2021/05/26 07:19:16;;;;;;;;;;;;;;;18.68;58.34;99491.95;1776089;81;20219;-85
2021/05/26 07:21:43;;;;;;;;;;;;;;;18.82;58.98;99490.38;1770333;80;20183;-84
2021/05/26 07:24:09;;;;;;;;;;;;;;;18.95;59.24;99492.77;1781156;80;21113;-85
2021/05/26 07:26:36;;;;;;;;;;;;;;;19.06;58.27;99484.30;1751397;80;20209;-82
2021/05/26 07:29:03;;;;;;;;;;;;;;;19.19;57.21;99494.54;1769603;81;20305;-84
2021/05/26 07:31:29;;;;;;;;;;;;;;;19.34;57.40;99492.00;1759770;81;20166;-84
2021/05/26 07:33:56;;;;;;;;;;;;;;;19.39;55.82;99489.97;1772450;81;20234;-84
2021/05/26 07:36:22;;;;;;;;;;;;;;;19.46;56.27;99486.91;1783858;80;20171;-84
2021/05/26 07:38:49;;;;;;;;;;;;;;;19.64;57.68;99492.95;1772773;80;20189;-85
2021/05/26 07:41:16;;;;;;;;;;;;;;;19.60;56.44;99495.84;1776519;80;20114;-85
2021/05/26 07:43:42;;;;;;;;;;;;;;;19.56;55.95;99492.53;1775628;80;20195;-84
2021/05/26 07:46:08;;;;;;;;;;;;;;;19.52;55.31;99503.31;1778422;81;20214;-85
2021/05/26 07:48:36;;;;;;;;;;;;;;;19.56;54.86;99492.53;1769849;81;20190;-85
2021/05/26 07:51:04;;;;;;;;;;;;;;;19.62;55.59;99490.86;1778998;81;20537;-84
2021/05/26 07:53:30;;;;;;;;;;;;;;;19.72;56.92;99485.95;1776808;80;20136;-85
2021/05/26 07:55:56;;;;;;;;;;;;;;;19.94;56.41;99498.77;1772806;81;20502;-85
2021/05/26 07:58:23;;;;;;;;;;;;;;;20.16;56.93;99492.26;1768769;81;20214;-85
2021/05/26 08:00:49;;;;;;;;;;;;;;;20.17;53.56;99487.34;1774824;81;20167;-85
2021/05/26 08:03:16;;;;;;;;;;;;;;;20.34;53.98;99487.69;1769679;81;20195;-85
2021/05/26 08:05:42;;;;;;;;;;;;;;;20.64;55.02;99492.95;1769717;80;20191;-83
2021/05/26 08:08:08;;;;;;;;;;;;;;;20.89;54.63;99492.32;1771214;81;20534;-83
2021/05/26 08:10:34;;;;;;;;;;;;;;;20.95;56.48;99496.35;1774121;81;20251;-84
2021/05/26 08:13:00;;;;;;;;;;;;;;;21.20;56.35;99491.72;1767758;81;20187;-84
2021/05/26 08:15:26;;;;;;;;;;;;;;;20.95;55.76;99490.62;1762221;81;20236;-82
2021/05/26 08:17:52;;;;;;;;;;;;;;;21.12;56.29;99487.39;1752879;81;20180;-84
2021/05/26 08:20:18;;;;;;;;;;;;;;;21.12;55.14;99486.91;1771504;81;20179;-84
2021/05/26 08:22:44;;;;;;;;;;;;;;;21.27;55.90;99485.12;1701180;83;20167;-82
2021/05/26 08:25:11;;;;;;;;;;;;;;;21.47;55.31;99469.78;1733442;82;20198;-86
2021/05/26 08:27:37;;;;;;;;;;;;;;;21.58;55.04;99476.08;1733117;82;20202;-85
2021/05/26 08:30:05;;;;;;;;;;;;;;;21.76;54.96;99474.04;1732015;82;20488;-82
2021/05/26 08:32:31;;;;;;;;;;;;;;;21.79;52.30;99473.01;1733172;82;20202;-83
2021/05/26 08:34:58;;;;;;;;;;;;;;;21.83;53.24;99479.31;1730781;82;20288;-87
2021/05/26 08:37:24;;;;;;;;;;;;;;;21.69;53.29;99472.76;1734012;82;20235;-86
2021/05/26 08:39:50;;;;;;;;;;;;;;;21.48;54.61;99474.98;1729799;82;20522;-85
2021/05/26 08:42:17;;;;;;;;;;;;;;;21.28;55.80;99470.09;1731195;81;20162;-89
2021/05/26 08:44:49;;;;;;;;;;;;;;;21.20;55.69;99470.57;1715528;83;20226;-86
2021/05/26 08:47:19;;;;;;;;;;;;;;;20.99;56.23;99478.91;1773482;80;20183;-86
2021/05/26 08:49:48;;;;;;;;;;;;;;;20.68;56.50;99474.65;1776525;81;20168;-86
2021/05/26 08:52:16;;;;;;;;;;;;;;;20.41;57.17;99474.48;1749529;81;20176;-85
2021/05/26 08:54:47;;;;;;;;;;;;;;;20.37;57.68;99480.44;1706353;81;20132;-87
2021/05/26 08:57:14;;;;;;;;;;;;;;;20.26;58.62;99473.61;1764391;81;20223;-87
2021/05/26 08:59:41;;;;;;;;;;;;;;;20.25;57.52;99474.09;1785835;80;20210;-87
2021/05/26 09:02:11;;;;;;;;;;;;;;;20.18;58.00;99474.54;1779665;79;20217;-86
2021/05/26 09:04:38;;;;;;;;;;;;;;;20.22;58.60;99473.42;1763093;80;20138;-83
2021/05/26 09:07:14;;;;;;;;;;;;;;;20.30;58.58;99475.13;1773961;80;20204;-84
2021/05/26 09:09:59;;;;;;;;;;;;;;;20.36;57.60;99475.24;1761451;80;20106;-85
2021/05/26 09:12:33;;;;;;;;;;;;;;;20.28;57.98;99471.73;1762234;80;20232;-85
2021/05/26 09:15:10;;;;;;;;;;;;;;;20.27;57.61;99470.02;1743301;81;20197;-84
2021/05/26 09:17:36;;;;;;;;;;;;;;;20.32;57.70;99465.33;1745140;82;20270;-85
2021/05/26 09:20:24;;;;;;;;;;;;;;;20.45;58.13;99457.51;1716888;81;20201;-84
2021/05/26 09:23:09;;;;;;;;;;;;;;;20.79;57.66;99466.05;1731092;82;20199;-84
2021/05/26 09:25:37;;;;;;;;;;;;;;;20.94;57.13;99464.28;1736831;81;20203;-88
2021/05/26 09:28:20;;;;;;;;;;;;;;;21.11;56.55;99464.08;1738666;82;20134;-85
2021/05/26 09:31:05;;;;;;;;;;;;;;;21.10;54.91;99459.72;1764856;81;20243;-86
2021/05/26 09:33:40;;;;;;;;;;;;;;;21.13;55.44;99462.19;1739572;81;20178;-87
2021/05/26 09:36:13;;;;;;;;;;;;;;;21.21;55.26;99451.97;1738097;81;20150;-86
2021/05/26 09:38:42;;;;;;;;;;;;;;;21.45;55.17;99450.91;1762198;80;20303;-83
2021/05/26 09:41:15;;;;;;;;;;;;;;;21.66;55.10;99449.12;1747425;80;20146;-86
2021/05/26 09:43:54;;;;;;;;;;;;;;;21.80;54.34;99452.20;1720821;81;20180;-87
2021/05/26 09:46:34;;;;;;;;;;;;;;;21.98;52.86;99445.67;1728610;83;20288;-85
2021/05/26 09:49:05;;;;;;;;;;;;;;;;;;1738870;82;20196;-84
2021/05/26 09:51:35;;;;;;;;;;;;;;;22.13;53.35;99439.00;1730395;82;20169;-84
2021/05/26 09:54:16;;;;;;;;;;;;;;;22.38;53.43;99437.74;1724933;82;20206;-83
2021/05/26 09:56:44;;;;;;;;;;;;;;;22.65;52.30;99439.42;1726831;83;20211;-84
2021/05/26 09:59:13;;;;;;;;;;;;;;;22.81;51.01;99443.17;1731125;83;20128;-84
2021/05/26 10:01:47;;;;;;;;;;;;;;;22.90;51.74;99437.69;1714688;82;20138;-84
2021/05/26 10:04:14;;;;;;;;;;;;;;;22.87;52.19;99411.41;1732951;83;20219;-84
2021/05/26 10:06:43;;;;;;;;;;;;;;;23.31;50.96;99429.95;1736695;82;20367;-83
2021/05/26 10:09:31;;;;;;;;;;;;;;;23.53;49.89;99433.20;1705858;83;20208;-83
2021/05/26 10:12:02;;;;;;;;;;;;;;;23.41;49.54;99426.98;1723109;83;20183;-82
2021/05/26 10:14:30;;;;;;;;;;;;;;;23.75;49.39;99436.44;1731949;82;20183;-83
2021/05/26 10:16:59;;;;;;;;;;;;;;;23.67;48.38;99430.37;1717152;83;20195;-87
2021/05/26 10:19:26;;;;;;;;;;;;;;;23.67;48.34;99425.55;1728008;83;20232;-86
2021/05/26 10:21:53;;;;;;;;;;;;;;;23.61;47.25;99428.17;1717933;82;20181;-85
2021/05/26 10:24:21;;;;;;;;;;;;;;;23.93;48.01;99424.47;1735459;82;20144;-86
2021/05/26 10:27:02;;;;;;;;;;;;;;;24.19;47.35;99423.84;1733432;82;20220;-84
2021/05/26 10:29:33;;;;;;;;;;;;;;;24.29;46.53;99411.16;1720042;83;20135;-85
2021/05/26 10:32:05;;;;;;;;;;;;;;;23.99;47.66;99420.51;1721908;82;20243;-85
2021/05/26 10:34:51;;;;;;;;;;;;;;;23.97;47.70;99421.10;1733970;81;20216;-86
2021/05/26 10:37:32;;;;;;;;;;;;;;;23.80;47.61;99411.77;1698383;81;20200;-87
2021/05/26 10:40:01;;;;;;;;;;;;;;;23.67;47.28;99406.48;1705812;83;20175;-85
2021/05/26 10:42:33;;;;;;;;;;;;;;;23.80;47.12;99408.63;1733902;81;20207;-87
2021/05/26 10:45:05;;;;;;;;;;;;;;;23.65;47.46;99403.58;1712915;83;20281;-82
2021/05/26 10:51:02;;;;;;;;;;;;;;;23.73;46.72;99401.20;1707839;82;20218;-85
2021/05/26 10:53:29;;;;;;;;;;;;;;;23.90;47.82;99406.62;1680427;81;20303;-86
2021/05/26 10:56:05;;;;;;;;;;;;;;;24.14;47.12;99391.45;1678085;84;20182;-87
2021/05/26 10:58:58;;;;;;;;;;;;;;;23.93;46.18;99396.59;1697898;84;20310;-89
2021/05/26 11:01:24;;;;;;;;;;;;;;;23.85;47.77;99394.16;1677686;81;20166;-84
2021/05/26 11:03:50;;;;;;;;;;;;;;;23.97;46.87;99396.75;1715779;83;20282;-84
2021/05/26 11:06:21;;;;;;;;;;;;;;;24.22;46.48;99382.91;1703787;83;20247;-82
2021/05/26 11:08:49;;;;;;;;;;;;;;;24.32;47.49;99385.70;1702390;82;20176;-85
2021/05/26 11:11:38;;;;;;;;;;;;;;;24.30;44.02;99382.31;1695482;83;20201;-85
2021/05/26 11:14:06;;;;;;;;;;;;;;;24.11;45.61;99381.55;1701806;84;20190;-85
2021/05/26 11:16:38;;;;;;;;;;;;;;;24.31;45.88;99381.34;1695987;83;20211;-85
2021/05/26 11:19:11;;;;;;;;;;;;;;;24.26;45.18;99377.72;1674165;84;20209;-84
2021/05/26 11:21:36;;;;;;;;;;;;;;;24.27;46.47;99372.75;1696079;83;20323;-83
2021/05/26 11:24:02;;;;;;;;;;;;;;;24.18;46.04;99373.00;1693621;83;20254;-84
2021/05/26 11:26:32;;;;;;;;;;;;;;;24.18;46.21;99372.16;1694046;82;20257;-84
2021/05/26 11:28:59;;;;;;;;;;;;;;;24.19;46.16;99376.03;1697303;82;20253;-85
2021/05/26 11:31:26;;;;;;;;;;;;;;;24.26;46.45;99367.09;1700851;83;20150;-85
2021/05/26 11:33:59;;;;;;;;;;;;;;;24.19;45.46;99357.89;1699194;82;20227;-85
2021/05/26 11:36:46;;;;;;;;;;;;;;;24.27;45.81;99360.80;1690829;83;20169;-85
2021/05/26 11:39:33;;;;;;;;;;;;;;;24.16;45.70;99355.49;1694799;83;20221;-85
2021/05/26 11:42:14;;;;;;;;;;;;;;;24.26;45.47;99356.95;1694584;82;20158;-85
2021/05/26 11:45:01;;;;;;;;;;;;;;;24.38;45.72;99362.14;1759105;80;20187;-84
2021/05/26 11:47:35;;;;;;;;;;;;;;;24.31;45.35;99349.45;1757537;80;20169;-86
2021/05/26 11:50:19;;;;;;;;;;;;;;;24.29;44.41;99342.95;1722712;81;20165;-85
2021/05/26 11:52:48;;;;;;;;;;;;;;;24.55;44.78;99337.41;1744154;81;20226;-85
2021/05/26 11:55:17;;;;;;;;;;;;;;;24.34;44.32;99346.08;1735853;81;20225;-85
2021/05/26 11:57:45;;;;;;;;;;;;;;;24.31;45.75;99339.70;1747849;81;20143;-86
2021/05/26 12:00:26;;;;;;;;;;;;;;;24.34;46.17;99330.63;1749802;81;20217;-87
2021/05/26 12:03:07;;;;;;;;;;;;;;;24.34;45.09;99330.63;1752412;81;20185;-91
2021/05/26 12:05:51;;;;;;;;;;;;;;;24.35;44.91;99333.17;1707390;82;20307;-89
2021/05/26 12:08:22;;;;;;;;;;;;;;;24.49;44.58;99328.10;1702260;84;20263;-84
2021/05/26 12:10:53;;;;;;;;;;;;;;;24.25;45.44;99333.50;1693816;83;20193;-84
2021/05/26 12:13:28;;;;;;;;;;;;;;;24.15;45.53;99328.09;1715296;82;20169;-84
2021/05/26 12:16:00;;;;;;;;;;;;;;;24.11;46.18;99322.63;1721681;82;20188;-85
2021/05/26 12:18:27;;;;;;;;;;;;;;;24.11;45.53;99324.45;1712061;82;20172;-86
2021/05/26 12:20:55;;;;;;;;;;;;;;;24.26;45.68;99315.78;1708839;83;20164;-85
2021/05/26 12:23:34;;;;;;;;;;;;;;;24.51;43.98;99310.72;1710984;82;20208;-83
2021/05/26 12:26:03;;;;;;;;;;;;;;;24.76;44.15;99303.80;1708155;83;20195;-84
2021/05/26 12:28:31;;;;;;;;;;;;;;;25.04;44.69;99299.39;1692555;83;20140;-83
2021/05/26 12:30:58;;;;;;;;;;;;;;;25.16;43.99;99301.03;1688259;83;20255;-83
2021/05/26 12:33:26;;;;;;;;;;;;;;;25.36;45.04;99296.75;1709951;81;20161;-83
2021/05/26 12:36:04;;;;;;;;;;;;;;;25.42;42.86;99298.89;1722350;80;20236;-84
2021/05/26 12:38:37;;;;;;;;;;;;;;;25.54;43.19;99287.21;1719673;81;20168;-86
2021/05/26 12:41:39;;;;;;;;;;;;;;;25.66;42.59;99285.83;1674856;83;20207;-86
2021/05/26 12:44:11;;;;;;;;;;;;;;;26.13;42.07;99279.61;1718840;82;20180;-87
2021/05/26 12:46:53;;;;;;;;;;;;;;;27.35;40.87;99277.16;1731503;82;20229;-84
2021/05/26 12:49:41;;;;;;;;;;;;;;;28.30;38.89;99274.58;1729555;80;20268;-85
2021/05/26 12:52:14;;;;;;;;;;;;;;;29.39;37.10;99267.91;1747873;78;20115;-84
2021/05/26 12:54:51;;;;;;;;;;;;;;;30.43;38.42;99253.66;1748780;79;20150;-85
2021/05/26 12:57:26;;;;;;;;;;;;;;;31.48;33.45;99267.46;1777668;79;20112;-86
2021/05/26 13:03:26;;;;;;;;;;;;;;;32.96;34.20;99254.84;1773001;79;20120;-83
2021/05/26 13:06:20;;;;;;;;;;;;;;;33.03;29.31;99249.09;1783596;80;20171;-86
2021/05/26 13:11:50;;;;;;;;;;;;;;;34.40;28.25;99244.91;1788304;78;20266;-91
2021/05/26 13:15:04;;;;;;;;;;;;;;;34.14;27.01;99237.33;1790399;78;20184;-89
2021/05/26 13:18:22;;;;;;;;;;;;;;;34.54;26.13;99229.71;1752564;80;20548;-90
2021/05/26 13:21:10;;;;;;;;;;;;;;;34.89;25.59;99233.94;1731551;81;20173;-91
2021/05/26 13:26:43;;;;;;;;;;;;;;;33.15;28.25;99231.16;1664593;84;20175;-87